Time;durP1;ratioP1;P1;durP2;ratioP2;P2;SDS_P1;SDS_P2;PMS_P1;PMS_P2;Temp;Humidity;BMP_temperature;BMP_pressure;BME280_temperature;BME280_humidity;BME280_pressure;Samples;Min_cycle;Max_cycle;Signal;HPM_P1;HPM_P2
2021/12/28 00:01:10;;;;;;;23.83;10.10;;;;;;;6.03;100.00;99382.56;4993646;28;20046;-56
2021/12/28 00:03:38;;;;;;;25.75;9.90;;;;;;;5.98;100.00;99374.41;4993085;28;20073;-58
2021/12/28 00:06:05;;;;;;;24.88;9.77;;;;;;;5.96;100.00;99371.13;4992907;28;20457;-57
2021/12/28 00:08:31;;;;;;;27.08;10.30;;;;;;;5.90;100.00;99373.19;4993234;28;20026;-56
2021/12/28 00:10:57;;;;;;;24.08;10.45;;;;;;;5.89;100.00;99373.50;4993276;28;20110;-57
2021/12/28 00:13:23;;;;;;;26.58;9.88;;;;;;;5.88;100.00;99369.16;4993026;28;20492;-57
2021/12/28 00:16:00;;;;;;;27.00;10.85;;;;;;;5.85;100.00;99378.03;4993035;28;20026;-57
2021/12/28 00:18:26;;;;;;;27.58;10.15;;;;;;;5.82;100.00;99371.19;4993813;28;20041;-57
2021/12/28 00:20:55;;;;;;;26.30;10.48;;;;;;;5.74;100.00;99370.03;4992569;28;20034;-56
2021/12/28 00:23:28;;;;;;;29.30;11.02;;;;;;;5.69;100.00;99367.38;4992551;28;20046;-56
2021/12/28 00:25:55;;;;;;;29.70;14.47;;;;;;;5.73;100.00;99376.63;4993204;28;20026;-56
2021/12/28 00:28:21;;;;;;;25.65;11.10;;;;;;;5.75;100.00;99376.31;4992322;28;20097;-55
2021/12/28 00:30:48;;;;;;;25.90;10.85;;;;;;;5.73;100.00;99373.88;4992892;28;20389;-58
2021/12/28 00:33:14;;;;;;;24.83;10.15;;;;;;;5.73;100.00;99368.41;4993038;28;20073;-55
2021/12/28 00:35:40;;;;;;;25.65;10.15;;;;;;;5.68;100.00;99371.25;4993131;28;20038;-55
2021/12/28 00:38:08;;;;;;;27.55;10.80;;;;;;;5.64;100.00;99364.75;4992864;28;20071;-55
2021/12/28 00:40:35;;;;;;;26.75;10.82;;;;;;;5.61;100.00;99366.22;4992896;28;20096;-56
2021/12/28 00:43:01;;;;;;;31.95;14.18;;;;;;;5.59;100.00;99357.47;4992840;28;20026;-55
2021/12/28 00:45:28;;;;;;;30.55;14.60;;;;;;;5.53;100.00;99339.47;4992716;28;20468;-55
2021/12/28 00:47:53;;;;;;;24.52;11.20;;;;;;;5.57;100.00;99358.91;4992576;28;20034;-55
2021/12/28 00:50:20;;;;;;;27.27;10.55;;;;;;;5.55;100.00;99350.16;4992512;28;20138;-55
2021/12/28 00:52:46;;;;;;;27.60;10.05;;;;;;;5.56;100.00;99349.84;4992819;28;20031;-55
2021/12/28 00:55:14;;;;;;;25.45;10.68;;;;;;;5.52;100.00;99354.34;4992809;28;20022;-57
2021/12/28 00:57:39;;;;;;;26.67;10.25;;;;;;;5.42;100.00;99336.16;4992547;28;20387;-55
2021/12/28 01:00:09;;;;;;;26.30;10.50;;;;;;;5.40;100.00;99335.66;4992667;28;20028;-55
2021/12/28 01:02:34;;;;;;;29.00;13.48;;;;;;;5.45;100.00;99341.03;4993062;28;20033;-55
2021/12/28 01:05:00;;;;;;;34.05;12.90;;;;;;;5.43;100.00;99340.53;4992576;28;20026;-55
2021/12/28 01:07:25;;;;;;;24.48;11.70;;;;;;;5.41;100.00;99342.78;4992882;28;20493;-55
2021/12/28 01:09:51;;;;;;;28.63;10.75;;;;;;;5.41;100.00;99337.28;4992633;28;20031;-56
2021/12/28 01:12:16;;;;;;;28.98;10.93;;;;;;;5.43;100.00;99331.50;4992808;28;20109;-56
2021/12/28 01:14:41;;;;;;;27.42;10.88;;;;;;;5.46;100.00;99325.38;4992787;28;20031;-57
2021/12/28 01:17:07;;;;;;;25.92;10.23;;;;;;;5.49;100.00;99318.47;4994620;28;20058;-56
2021/12/28 01:19:33;;;;;;;29.52;11.32;;;;;;;5.51;100.00;99325.28;4996184;28;20443;-58
2021/12/28 01:22:01;;;;;;;28.35;10.55;;;;;;;5.57;100.00;99326.78;4994730;28;20117;-55
2021/12/28 01:24:27;;;;;;;27.73;11.00;;;;;;;5.61;100.00;99332.44;4996350;28;20022;-56
2021/12/28 01:26:52;;;;;;;27.88;10.95;;;;;;;5.62;100.00;99332.13;4995848;28;20454;-59
2021/12/28 01:29:18;;;;;;;26.83;10.25;;;;;;;5.64;100.00;99329.09;4996370;28;20022;-57
2021/12/28 01:31:43;;;;;;;30.42;11.00;;;;;;;5.59;100.00;99331.94;4996127;28;20033;-57
2021/12/28 01:34:09;;;;;;;28.10;10.25;;;;;;;5.55;100.00;99330.97;4995255;28;20485;-55
2021/12/28 01:36:35;;;;;;;26.77;10.40;;;;;;;5.50;100.00;99328.31;4995994;28;20023;-56
2021/12/28 01:39:03;;;;;;;26.63;10.13;;;;;;;5.43;100.00;99317.78;4995809;28;20493;-54
2021/12/28 01:41:29;;;;;;;24.98;10.15;;;;;;;5.39;100.00;99320.31;4995625;28;20113;-55
2021/12/28 01:44:01;;;;;;;31.67;13.48;;;;;;;5.39;100.00;99323.06;4995886;28;20105;-55
2021/12/28 01:46:27;;;;;;;26.58;11.25;;;;;;;5.37;100.00;99321.75;4995874;28;20037;-55
2021/12/28 01:48:52;;;;;;;25.85;10.13;;;;;;;5.34;100.00;99323.19;4995333;28;20030;-55
2021/12/28 01:51:21;;;;;;;26.08;10.43;;;;;;;5.31;100.00;99319.13;4995084;28;20050;-55
2021/12/28 01:53:48;;;;;;;29.20;10.65;;;;;;;5.27;100.00;99328.28;4995146;28;20440;-55
2021/12/28 01:56:17;;;;;;;28.35;11.27;;;;;;;5.26;100.00;99327.47;4995376;28;20022;-54
2021/12/28 01:58:44;;;;;;;30.75;11.27;;;;;;;5.24;100.00;99323.41;4995258;28;20478;-55
2021/12/28 02:01:09;;;;;;;28.30;10.98;;;;;;;5.22;100.00;99323.72;4995666;28;20128;-55
2021/12/28 02:03:38;;;;;;;27.17;11.00;;;;;;;5.15;100.00;99312.34;4994833;28;20061;-55
2021/12/28 02:06:04;;;;;;;30.88;12.00;;;;;;;5.21;100.00;99324.03;4994860;28;20027;-55
2021/12/28 02:08:29;;;;;;;27.42;11.55;;;;;;;5.18;100.00;99321.91;4994969;28;20496;-56
2021/12/28 02:10:56;;;;;;;27.73;10.65;;;;;;;5.19;100.00;99326.28;4995339;28;20500;-56
2021/12/28 02:13:22;;;;;;;27.90;10.60;;;;;;;5.19;100.00;99320.78;4995489;28;20038;-55
2021/12/28 02:15:48;;;;;;;26.52;9.75;;;;;;;5.19;100.00;99321.59;4994962;28;20113;-56
2021/12/28 02:18:16;;;;;;;32.78;11.43;;;;;;;5.20;100.00;99319.66;4995176;28;20417;-56
2021/12/28 02:20:42;;;;;;;29.00;10.65;;;;;;;5.20;100.00;99309.50;4993596;28;20054;-54
2021/12/28 02:23:08;;;;;;;28.20;11.23;;;;;;;5.22;100.00;99310.03;4995084;28;20474;-56
2021/12/28 02:25:35;;;;;;;30.13;11.00;;;;;;;5.25;100.00;99311.31;4994978;28;20022;-55
2021/12/28 02:28:02;;;;;;;32.42;11.48;;;;;;;5.27;100.00;99312.63;4994134;28;20088;-55
2021/12/28 02:30:28;;;;;;;30.33;11.45;;;;;;;5.30;100.00;99308.47;4993296;28;20382;-55
2021/12/28 02:32:53;;;;;;;29.75;11.80;;;;;;;5.34;100.00;99304.00;4994867;28;20081;-55
2021/12/28 02:35:22;;;;;;;29.55;11.10;;;;;;;5.39;100.00;99298.38;4994914;28;20030;-55
2021/12/28 02:37:48;;;;;;;29.35;10.13;;;;;;;5.48;100.00;99306.69;4994465;28;20053;-54
2021/12/28 02:40:16;;;;;;;30.10;11.77;;;;;;;5.52;100.00;99287.69;4994723;28;20381;-55
2021/12/28 02:42:42;;;;;;;33.88;13.70;;;;;;;5.57;100.00;99290.31;4994998;28;20026;-57
2021/12/28 02:45:12;;;;;;;29.83;11.43;;;;;;;5.64;100.00;99293.44;4994657;28;20478;-56
2021/12/28 02:47:39;;;;;;;30.10;10.80;;;;;;;5.68;100.00;99285.38;4994589;28;20541;-55
2021/12/28 02:50:08;;;;;;;33.28;10.45;;;;;;;5.72;100.00;99289.94;4994116;28;20038;-55
2021/12/28 02:52:36;;;;;;;30.05;10.07;;;;;;;5.76;100.00;99292.88;4994058;28;20117;-55
2021/12/28 02:55:06;;;;;;;31.83;9.55;;;;;;;5.78;100.00;99277.69;4994293;28;20036;-55
2021/12/28 02:57:31;;;;;;;31.73;9.30;;;;;;;5.80;100.00;99282.91;4994429;28;20022;-55
2021/12/28 02:59:56;;;;;;;31.00;9.27;;;;;;;5.83;100.00;99274.03;4993929;28;20038;-55
2021/12/28 03:02:22;;;;;;;31.75;10.75;;;;;;;5.86;100.00;99270.66;4994560;28;20026;-56
2021/12/28 03:04:47;;;;;;;29.67;10.05;;;;;;;5.88;100.00;99267.59;4994284;28;20049;-56
2021/12/28 03:07:12;;;;;;;27.23;8.82;;;;;;;5.86;100.00;99269.84;4994240;28;20034;-54
2021/12/28 03:09:38;;;;;;;29.13;9.48;;;;;;;5.84;100.00;99263.88;4993441;28;20026;-56
2021/12/28 03:12:04;;;;;;;32.33;9.38;;;;;;;5.84;100.00;99266.63;4993392;28;20378;-54
2021/12/28 03:14:29;;;;;;;31.70;9.30;;;;;;;5.88;100.00;99260.19;4993564;28;20037;-56
2021/12/28 03:16:55;;;;;;;36.03;9.10;;;;;;;5.88;100.00;99262.94;4993496;28;20108;-57
2021/12/28 03:19:20;;;;;;;30.88;8.27;;;;;;;5.92;100.00;99257.63;4993532;28;20026;-55
2021/12/28 03:21:46;;;;;;;33.58;11.88;;;;;;;5.93;100.00;99256.50;4993739;28;20057;-57
2021/12/28 03:24:12;;;;;;;30.23;10.07;;;;;;;5.97;100.00;99256.69;4994084;28;20032;-55
2021/12/28 03:26:38;;;;;;;32.53;9.50;;;;;;;5.94;100.00;99247.94;4993616;28;20031;-55
2021/12/28 03:29:04;;;;;;;32.53;10.52;;;;;;;5.93;100.00;99251.81;4993431;28;20496;-56
2021/12/28 03:31:30;;;;;;;30.80;9.77;;;;;;;5.93;100.00;99251.00;4993918;28;20046;-58
2021/12/28 03:33:55;;;;;;;28.73;9.23;;;;;;;5.93;100.00;99248.25;4993499;28;20479;-55
2021/12/28 03:36:24;;;;;;;29.67;8.27;;;;;;;5.92;100.00;99244.69;4993960;28;20030;-55
2021/12/28 03:38:50;;;;;;;29.58;9.18;;;;;;;5.92;100.00;99236.47;4993196;28;20359;-56
2021/12/28 03:41:18;;;;;;;29.83;9.60;;;;;;;5.84;100.00;99225.44;4992653;28;20042;-56
2021/12/28 03:43:46;;;;;;;33.33;10.23;;;;;;;5.86;100.00;99231.41;4993218;28;20041;-55
2021/12/28 03:46:12;;;;;;;31.73;8.85;;;;;;;5.84;100.00;99218.00;4992215;28;20030;-55
2021/12/28 03:48:41;;;;;;;31.92;8.90;;;;;;;5.80;100.00;99213.47;4993703;28;20034;-57
2021/12/28 03:51:08;;;;;;;28.10;8.90;;;;;;;5.82;100.00;99213.97;4993332;28;20043;-55
2021/12/28 03:53:34;;;;;;;30.33;8.85;;;;;;;5.81;100.00;99207.66;4993144;28;20077;-57
2021/12/28 03:56:00;;;;;;;33.42;9.50;;;;;;;5.86;100.00;99212.19;4993073;28;20022;-55
2021/12/28 03:58:25;;;;;;;28.35;8.43;;;;;;;5.91;100.00;99203.84;4993111;28;20077;-56
2021/12/28 04:00:50;;;;;;;38.10;15.57;;;;;;;5.96;100.00;99195.47;4993358;28;20036;-56
2021/12/28 04:03:16;;;;;;;30.02;9.60;;;;;;;6.02;100.00;99196.16;4993962;28;20025;-57
2021/12/28 04:05:44;;;;;;;28.98;9.30;;;;;;;6.11;100.00;99212.69;4993639;28;20027;-55
2021/12/28 04:08:10;;;;;;;32.05;8.82;;;;;;;6.12;100.00;99198.63;4993229;28;20026;-55
2021/12/28 04:10:50;;;;;;;31.90;8.85;;;;;;;6.17;100.00;99206.75;4993617;28;20035;-57
2021/12/28 04:13:16;;;;;;;29.05;8.02;;;;;;;6.23;100.00;99202.72;4993046;28;20367;-56
2021/12/28 04:15:41;;;;;;;29.05;7.93;;;;;;;6.26;100.00;99212.25;4993552;28;20022;-56
2021/12/28 04:18:07;;;;;;;30.98;8.82;;;;;;;6.29;100.00;99210.81;4992308;28;20366;-56
2021/12/28 04:20:32;;;;;;;30.58;11.75;;;;;;;6.34;100.00;99208.72;4993263;28;20027;-57
2021/12/28 04:22:57;;;;;;;28.33;8.70;;;;;;;6.39;100.00;99197.63;4993485;28;20030;-57
2021/12/28 04:25:23;;;;;;;29.02;8.30;;;;;;;6.45;100.00;99194.72;4993432;28;20481;-55
2021/12/28 04:27:48;;;;;;;28.08;8.70;;;;;;;6.48;100.00;99200.38;4993035;28;20073;-56
2021/12/28 04:30:15;;;;;;;28.75;8.20;;;;;;;6.50;100.00;99191.81;4992934;28;20084;-56
2021/12/28 04:32:41;;;;;;;26.80;8.23;;;;;;;6.53;100.00;99197.50;4993174;28;20199;-56
2021/12/28 04:35:08;;;;;;;29.88;7.88;;;;;;;6.58;100.00;99203.94;4993455;28;20482;-56
2021/12/28 04:37:33;;;;;;;27.73;7.68;;;;;;;6.58;100.00;99195.72;4992880;28;20508;-57
2021/12/28 04:39:59;;;;;;;30.30;10.77;;;;;;;6.59;100.00;99198.16;4993594;28;20027;-56
2021/12/28 04:42:26;;;;;;;28.00;8.80;;;;;;;6.64;100.00;99200.75;4992788;28;20077;-57
2021/12/28 04:44:53;;;;;;;27.48;8.15;;;;;;;6.64;100.00;99202.69;4992968;28;20022;-56
2021/12/28 04:47:18;;;;;;;27.58;8.70;;;;;;;6.67;100.00;99199.28;4992902;28;20026;-56
2021/12/28 04:49:44;;;;;;;24.23;7.60;;;;;;;6.69;100.00;99208.84;4993075;28;20395;-55
2021/12/28 04:52:09;;;;;;;27.35;7.70;;;;;;;6.73;100.00;99206.25;4995972;28;20038;-56
2021/12/28 04:54:37;;;;;;;25.73;7.80;;;;;;;6.75;100.00;99206.75;4997054;28;20041;-54
2021/12/28 04:57:04;;;;;;;25.42;7.22;;;;;;;6.77;100.00;99209.97;4995458;28;20025;-56
2021/12/28 04:59:29;;;;;;;27.70;8.35;;;;;;;6.82;100.00;99207.09;4996233;28;20027;-55
2021/12/28 05:01:54;;;;;;;24.98;7.90;;;;;;;6.90;100.00;99210.16;4996572;28;20029;-58
2021/12/28 05:04:19;;;;;;;26.63;7.35;;;;;;;6.91;100.00;99212.56;4996984;28;20041;-58
2021/12/28 05:06:45;;;;;;;22.15;7.32;;;;;;;6.94;100.00;99205.66;4995958;28;20038;-57
2021/12/28 05:09:11;;;;;;;28.02;7.20;;;;;;;6.95;100.00;99210.81;4995322;28;20058;-57
2021/12/28 05:11:37;;;;;;;26.13;7.22;;;;;;;6.97;100.00;99202.25;4996516;28;20018;-57
2021/12/28 05:14:05;;;;;;;31.92;8.13;;;;;;;6.98;100.00;99192.84;4996244;28;20034;-56
2021/12/28 05:16:33;;;;;;;24.77;7.13;;;;;;;7.00;100.00;99194.16;4996355;28;20069;-56
2021/12/28 05:18:58;;;;;;;27.00;10.85;;;;;;;7.02;100.00;99189.16;4995232;28;20022;-57
2021/12/28 05:21:25;;;;;;;27.08;8.00;;;;;;;7.06;100.00;99191.25;5027642;28;20113;-56
2021/12/28 05:23:50;;;;;;;25.38;7.00;;;;;;;7.08;100.00;99187.03;4996340;28;20069;-56
2021/12/28 05:26:16;;;;;;;22.95;6.95;;;;;;;7.10;100.00;99178.47;4996022;28;20053;-56
2021/12/28 05:28:41;;;;;;;22.15;6.90;;;;;;;7.12;100.00;99185.28;4996661;28;20038;-56
2021/12/28 05:31:07;;;;;;;24.55;7.57;;;;;;;7.13;100.00;99172.31;4995931;28;20057;-57
2021/12/28 05:33:33;;;;;;;22.58;8.05;;;;;;;7.15;100.00;99175.56;4996200;28;20562;-57
2021/12/28 05:35:58;;;;;;;25.02;8.20;;;;;;;7.15;100.00;99172.81;4995695;28;20026;-57
2021/12/28 05:38:23;;;;;;;25.45;8.48;;;;;;;7.22;100.00;99170.38;4995901;28;20029;-56
2021/12/28 05:40:48;;;;;;;30.05;11.40;;;;;;;7.26;100.00;99173.28;4995777;28;20101;-61
2021/12/28 05:43:14;;;;;;;23.67;8.32;;;;;;;7.27;100.00;99172.16;4995707;28;20120;-57
2021/12/28 05:45:40;;;;;;;25.02;8.10;;;;;;;7.27;100.00;99170.22;4996164;28;20101;-55
2021/12/28 05:48:05;;;;;;;21.48;7.32;;;;;;;7.27;100.00;99167.47;4995252;28;20116;-57
2021/12/28 05:50:31;;;;;;;22.83;7.15;;;;;;;7.27;100.00;99159.22;4995515;28;20064;-58
2021/12/28 05:52:56;;;;;;;20.42;6.93;;;;;;;7.26;100.00;99157.59;4995753;28;20118;-59
2021/12/28 05:55:22;;;;;;;25.30;7.45;;;;;;;7.27;100.00;99161.16;4995842;28;20034;-58
2021/12/28 05:57:47;;;;;;;24.83;9.18;;;;;;;7.27;100.00;99156.47;4995729;28;20366;-57
2021/12/28 06:00:13;;;;;;;26.95;7.88;;;;;;;7.29;100.00;99151.44;4995739;28;20482;-57
2021/12/28 06:02:39;;;;;;;22.85;7.18;;;;;;;7.27;100.00;99142.72;4993948;28;20026;-56
2021/12/28 06:05:04;;;;;;;23.85;7.57;;;;;;;7.28;100.00;99144.31;4995153;28;20033;-56
2021/12/28 06:07:30;;;;;;;24.17;7.60;;;;;;;7.27;100.00;99145.47;4994842;28;20374;-57
2021/12/28 06:09:56;;;;;;;20.48;6.82;;;;;;;7.28;100.00;99160.81;4995350;28;20072;-56
2021/12/28 06:12:23;;;;;;;22.10;7.80;;;;;;;7.29;100.00;99150.63;4995263;28;20113;-57
2021/12/28 06:14:48;;;;;;;23.60;7.80;;;;;;;7.27;100.00;99141.91;4993356;28;20046;-56
2021/12/28 06:17:13;;;;;;;21.95;9.13;;;;;;;7.27;100.00;99139.16;4994780;28;20457;-55
2021/12/28 06:19:39;;;;;;;22.83;8.02;;;;;;;7.29;100.00;99150.63;4994947;28;20100;-56
2021/12/28 06:22:04;;;;;;;22.80;8.18;;;;;;;7.28;100.00;99147.06;4994693;28;20035;-56
2021/12/28 06:24:29;;;;;;;22.90;7.40;;;;;;;7.30;100.00;99138.50;4995192;28;20018;-55
2021/12/28 06:26:55;;;;;;;20.58;7.53;;;;;;;7.30;100.00;99133.00;4995118;28;20041;-57
2021/12/28 06:29:20;;;;;;;26.80;7.40;;;;;;;7.31;100.00;99138.16;4995228;28;20096;-57
2021/12/28 06:31:45;;;;;;;18.38;7.32;;;;;;;7.31;100.00;99135.41;4995132;28;20054;-56
2021/12/28 06:34:11;;;;;;;20.95;6.80;;;;;;;7.33;100.00;99138.66;4994713;28;20027;-56
2021/12/28 06:36:37;;;;;;;17.92;7.70;;;;;;;7.33;100.00;99124.06;4995074;28;20035;-58
2021/12/28 06:39:03;;;;;;;20.33;7.38;;;;;;;7.35;100.00;99132.81;4994426;28;20562;-56
2021/12/28 06:41:28;;;;;;;17.75;7.00;;;;;;;7.36;100.00;99120.69;4994856;28;20049;-56
2021/12/28 06:43:54;;;;;;;16.52;6.50;;;;;;;7.38;100.00;99125.84;4994915;28;20026;-56
2021/12/28 06:46:19;;;;;;;19.08;7.13;;;;;;;7.38;100.00;99120.34;4993232;28;20390;-56
2021/12/28 06:48:44;;;;;;;22.77;6.88;;;;;;;7.38;100.00;99109.34;4994501;28;20363;-56
2021/12/28 06:51:11;;;;;;;19.95;7.05;;;;;;;7.39;100.00;99106.28;4993880;28;20093;-56
2021/12/28 06:53:37;;;;;;;18.88;6.53;;;;;;;7.38;100.00;99110.16;4994850;28;20026;-56
2021/12/28 06:56:03;;;;;;;21.55;6.57;;;;;;;7.37;100.00;99113.25;4994609;28;20030;-56
2021/12/28 06:58:29;;;;;;;19.55;6.32;;;;;;;7.35;100.00;99124.56;4994939;28;20057;-56
2021/12/28 07:00:54;;;;;;;18.88;6.60;;;;;;;7.32;100.00;99119.72;4994519;28;20450;-58
2021/12/28 07:03:19;;;;;;;20.27;6.50;;;;;;;7.31;100.00;99116.16;4994410;28;20138;-56
2021/12/28 07:05:45;;;;;;;16.70;6.60;;;;;;;7.30;100.00;99117.28;4994652;28;20068;-56
2021/12/28 07:08:10;;;;;;;17.58;6.68;;;;;;;7.31;100.00;99113.41;4994358;28;20022;-56
2021/12/28 07:10:35;;;;;;;21.00;6.90;;;;;;;7.32;100.00;99105.97;4993883;28;20078;-56
2021/12/28 07:13:01;;;;;;;18.92;6.93;;;;;;;7.33;100.00;99104.81;4993507;28;20100;-56
2021/12/28 07:15:26;;;;;;;19.08;6.70;;;;;;;7.31;100.00;99104.38;4994370;28;20379;-58
2021/12/28 07:17:51;;;;;;;21.40;7.10;;;;;;;7.31;100.00;99104.38;4994315;28;20084;-56
2021/12/28 07:20:17;;;;;;;17.50;7.07;;;;;;;7.34;100.00;99103.69;4994359;28;20027;-56
2021/12/28 07:22:42;;;;;;;20.63;6.60;;;;;;;7.33;100.00;99102.91;4994308;28;20042;-56
2021/12/28 07:25:09;;;;;;;19.05;6.90;;;;;;;7.33;100.00;99096.56;4994264;28;20031;-56
2021/12/28 07:27:35;;;;;;;19.00;7.22;;;;;;;7.36;100.00;99106.94;4994399;28;20097;-56
2021/12/28 07:30:05;;;;;;;16.73;6.45;;;;;;;7.37;100.00;99116.00;4994331;28;20022;-56
2021/12/28 07:32:30;;;;;;;16.92;6.78;;;;;;;7.38;100.00;99107.41;4994031;28;20033;-57
2021/12/28 07:34:56;;;;;;;17.58;6.50;;;;;;;7.38;100.00;99107.41;4994071;28;20027;-57
2021/12/28 07:37:22;;;;;;;19.20;7.55;;;;;;;7.39;100.00;99099.97;4993924;28;20026;-57
2021/12/28 07:39:50;;;;;;;17.45;6.70;;;;;;;7.40;100.00;99107.06;4994088;28;20393;-56
2021/12/28 07:42:16;;;;;;;18.23;6.40;;;;;;;7.40;100.00;99101.56;4993879;28;20031;-56
2021/12/28 07:44:41;;;;;;;20.65;7.10;;;;;;;7.40;100.00;99091.41;4993857;28;20038;-56
2021/12/28 07:47:06;;;;;;;19.70;6.70;;;;;;;7.41;100.00;99089.44;4993861;28;20030;-56
2021/12/28 07:49:32;;;;;;;19.55;7.63;;;;;;;7.41;100.00;99100.44;4993821;28;20065;-57
2021/12/28 07:51:57;;;;;;;18.08;7.03;;;;;;;7.41;100.00;99092.19;4993744;28;20046;-56
2021/12/28 07:54:22;;;;;;;17.15;7.10;;;;;;;7.42;100.00;99102.84;4992606;28;20038;-56
2021/12/28 07:56:48;;;;;;;20.10;7.18;;;;;;;7.43;100.00;99098.19;4992771;28;20386;-56
2021/12/28 07:59:13;;;;;;;20.67;7.30;;;;;;;7.43;100.00;99098.97;4993075;28;20049;-55
2021/12/28 08:01:39;;;;;;;15.35;7.03;;;;;;;7.43;100.00;99101.72;4993038;28;20034;-58
2021/12/28 08:04:04;;;;;;;18.42;7.10;;;;;;;7.41;100.00;99097.69;4993445;28;20030;-56
2021/12/28 08:06:30;;;;;;;19.77;7.18;;;;;;;7.46;100.00;99098.31;4993451;28;20042;-57
2021/12/28 08:08:55;;;;;;;17.70;7.60;;;;;;;7.46;100.00;99095.56;4993329;28;20026;-56
2021/12/28 08:11:22;;;;;;;20.05;8.65;;;;;;;7.47;100.00;99099.13;4993436;28;20084;-55
2021/12/28 08:13:48;;;;;;;21.90;10.60;;;;;;;7.50;100.00;99090.22;4993707;28;20026;-57
2021/12/28 08:16:13;;;;;;;23.23;11.98;;;;;;;7.52;100.00;99090.69;4993333;28;20501;-56
2021/12/28 08:18:38;;;;;;;23.55;11.50;;;;;;;7.54;100.00;99085.69;4993549;28;20492;-56
2021/12/28 08:21:03;;;;;;;19.83;9.52;;;;;;;7.54;100.00;99091.19;4993299;28;20062;-52
2021/12/28 08:23:29;;;;;;;17.30;7.90;;;;;;;7.55;100.00;99089.22;4993181;28;20026;-54
2021/12/28 08:25:54;;;;;;;17.48;8.18;;;;;;;7.53;100.00;99092.31;4994139;28;20034;-57
2021/12/28 08:28:20;;;;;;;18.02;6.82;;;;;;;7.57;100.00;99089.72;4997340;28;20053;-57
2021/12/28 08:30:45;;;;;;;16.27;6.85;;;;;;;7.56;100.00;99083.38;4997389;28;20034;-58
2021/12/28 08:33:10;;;;;;;20.27;6.97;;;;;;;7.58;100.00;99085.84;4997289;28;20081;-55
2021/12/28 08:35:39;;;;;;;18.38;7.25;;;;;;;7.56;100.00;99077.88;4997517;28;20513;-54
2021/12/28 08:38:06;;;;;;;15.23;6.55;;;;;;;7.59;100.00;99080.00;4996940;28;20027;-56
2021/12/28 08:40:32;;;;;;;16.08;6.75;;;;;;;7.60;100.00;99069.81;4979524;28;20038;-55
2021/12/28 08:42:57;;;;;;;15.20;6.93;;;;;;;7.61;100.00;99069.47;4975797;28;20037;-54
2021/12/28 08:45:23;;;;;;;15.95;6.82;;;;;;;7.61;100.00;99065.88;4975629;28;20465;-55
2021/12/28 08:47:49;;;;;;;19.15;7.78;;;;;;;7.64;100.00;99065.25;4975197;28;20502;-54
2021/12/28 08:50:16;;;;;;;17.80;6.47;;;;;;;7.68;100.00;99070.88;4975254;28;20067;-54
2021/12/28 08:52:42;;;;;;;15.27;7.28;;;;;;;7.68;100.00;99057.94;4975271;28;20450;-55
2021/12/28 08:55:08;;;;;;;17.83;7.25;;;;;;;7.70;100.00;99069.41;4975586;28;20041;-55
2021/12/28 08:57:33;;;;;;;17.50;7.15;;;;;;;7.74;100.00;99072.34;4973733;28;20035;-54
2021/12/28 08:59:59;;;;;;;17.00;6.90;;;;;;;7.78;100.00;99070.53;4975365;28;20033;-55
2021/12/28 09:02:24;;;;;;;15.80;7.13;;;;;;;7.79;100.00;99064.69;4975564;28;20466;-55
2021/12/28 09:04:49;;;;;;;17.05;6.80;;;;;;;7.84;100.00;99074.69;4973466;28;20576;-55
2021/12/28 09:07:17;;;;;;;16.20;6.82;;;;;;;7.88;100.00;99069.34;4975765;28;20038;-55
2021/12/28 09:09:43;;;;;;;18.08;6.93;;;;;;;7.89;100.00;99058.00;4976072;28;20027;-54
2021/12/28 09:12:10;;;;;;;18.65;7.13;;;;;;;7.90;100.00;99056.03;4974493;28;20114;-55
2021/12/28 09:14:36;;;;;;;16.10;6.93;;;;;;;7.93;100.00;99044.38;4974938;28;20482;-54
2021/12/28 09:17:03;;;;;;;15.15;6.50;;;;;;;7.90;100.00;99042.28;4974892;28;20102;-54
2021/12/28 09:19:28;;;;;;;16.60;6.97;;;;;;;7.97;100.00;99053.59;4975303;28;20022;-55
2021/12/28 09:21:54;;;;;;;15.73;6.45;;;;;;;8.01;100.00;99054.53;4974736;28;20208;-55
2021/12/28 09:24:19;;;;;;;16.00;6.88;;;;;;;7.99;100.00;99036.72;4974820;28;20066;-55
2021/12/28 09:26:44;;;;;;;16.58;6.75;;;;;;;8.04;100.00;99053.88;4985262;28;20470;-56
2021/12/28 09:29:10;;;;;;;16.75;7.32;;;;;;;8.02;100.00;99045.13;4994366;28;20113;-56
2021/12/28 09:31:36;;;;;;;15.93;7.30;;;;;;;8.07;100.00;99042.19;4993544;28;20034;-55
2021/12/28 09:34:01;;;;;;;17.27;6.80;;;;;;;8.12;100.00;99043.94;4993412;28;20393;-55
2021/12/28 09:36:26;;;;;;;17.95;7.88;;;;;;;8.14;100.00;99038.91;4993879;28;20034;-57
2021/12/28 09:38:52;;;;;;;17.55;7.35;;;;;;;8.21;100.00;99038.38;4992543;28;20548;-55
2021/12/28 09:41:17;;;;;;;18.35;7.97;;;;;;;8.23;100.00;99038.84;4993752;28;20038;-55
2021/12/28 09:43:43;;;;;;;16.20;7.32;;;;;;;8.26;100.00;99029.91;4993990;28;20026;-57
2021/12/28 09:46:09;;;;;;;17.25;7.78;;;;;;;8.27;100.00;99035.09;4993818;28;20121;-55
2021/12/28 09:48:36;;;;;;;17.52;7.70;;;;;;;8.30;100.00;99035.56;4993971;28;20030;-56
2021/12/28 09:51:02;;;;;;;18.23;7.78;;;;;;;8.33;100.00;99021.94;4993171;28;20065;-55
2021/12/28 09:53:28;;;;;;;17.63;8.00;;;;;;;8.34;100.00;99023.53;4994144;28;20034;-55
2021/12/28 09:55:54;;;;;;;16.65;7.57;;;;;;;8.34;100.00;99022.72;4993711;28;20037;-56
2021/12/28 09:58:19;;;;;;;16.75;7.45;;;;;;;8.35;100.00;99024.34;4991903;28;20032;-55
2021/12/28 10:00:44;;;;;;;17.60;7.95;;;;;;;8.37;100.00;99024.81;4993635;28;20046;-55
2021/12/28 10:03:10;;;;;;;18.25;8.10;;;;;;;8.36;100.00;99007.47;4993872;28;20112;-55
2021/12/28 10:05:36;;;;;;;17.15;7.53;;;;;;;8.39;100.00;99004.03;4992498;28;20037;-55
2021/12/28 10:08:04;;;;;;;17.92;7.57;;;;;;;8.37;100.00;99003.56;4993725;28;20065;-60
2021/12/28 10:10:35;;;;;;;16.80;7.68;;;;;;;8.40;100.00;98994.63;4993608;28;20030;-55
2021/12/28 10:13:04;;;;;;;18.23;7.95;;;;;;;8.51;100.00;98992.28;4993346;28;20061;-56
2021/12/28 10:15:32;;;;;;;17.98;7.75;;;;;;;8.54;100.00;98988.88;4993183;28;20488;-56
2021/12/28 10:18:01;;;;;;;18.08;8.05;;;;;;;8.63;100.00;98986.03;4991345;28;20066;-56
2021/12/28 10:20:30;;;;;;;17.77;8.50;;;;;;;8.70;100.00;98985.47;4993170;28;20549;-56
2021/12/28 10:23:02;;;;;;;18.65;8.57;;;;;;;8.72;100.00;98981.25;4992726;28;20019;-55
2021/12/28 10:25:32;;;;;;;18.65;8.60;;;;;;;8.73;100.00;98982.88;4993340;28;20117;-55
2021/12/28 10:28:11;;;;;;;17.30;8.10;;;;;;;8.72;100.00;98972.16;4993046;28;20038;-58
2021/12/28 10:30:52;;;;;;;17.98;8.45;;;;;;;8.76;100.00;98972.28;4993071;28;20033;-55
2021/12/28 10:33:20;;;;;;;18.38;8.48;;;;;;;8.72;100.00;98955.63;4993381;28;20061;-56
2021/12/28 10:35:53;;;;;;;16.63;8.07;;;;;;;8.76;100.00;98959.31;4982960;28;20114;-56
2021/12/28 10:38:21;;;;;;;17.52;8.13;;;;;;;8.79;100.00;98949.56;4984600;28;20093;-56
2021/12/28 10:40:52;;;;;;;16.05;7.75;;;;;;;8.78;100.00;98931.41;4975865;28;20030;-56
2021/12/28 10:43:20;;;;;;;19.08;9.05;;;;;;;8.80;100.00;98920.84;4982395;28;20038;-56
2021/12/28 10:45:51;;;;;;;19.67;8.60;;;;;;;8.90;100.00;98932.22;4990402;28;20033;-55
2021/12/28 10:48:19;;;;;;;16.95;7.88;;;;;;;8.87;100.00;98932.94;4992776;28;20042;-56
2021/12/28 10:51:01;;;;;;;18.00;7.70;;;;;;;8.94;100.00;98929.59;4992181;28;20636;-56
2021/12/28 10:53:36;;;;;;;15.50;7.60;;;;;;;8.96;100.00;98929.25;4992851;28;20041;-56
2021/12/28 10:56:03;;;;;;;15.60;7.25;;;;;;;9.05;100.00;98932.72;4992890;28;20022;-55
2021/12/28 10:58:40;;;;;;;16.40;7.25;;;;;;;9.02;100.00;98923.16;4990058;28;20421;-58
2021/12/28 11:01:23;;;;;;;15.15;6.95;;;;;;;9.05;100.00;98921.69;4992322;28;20117;-56
2021/12/28 11:03:58;;;;;;;14.60;6.57;;;;;;;9.07;100.00;98915.81;4992525;28;20054;-56
2021/12/28 11:06:27;;;;;;;13.85;7.10;;;;;;;9.07;100.00;98919.38;4992951;28;20034;-56
2021/12/28 11:08:56;;;;;;;12.77;6.30;;;;;;;9.04;100.00;98918.13;4991099;28;20394;-54
2021/12/28 11:11:24;;;;;;;13.10;6.50;;;;;;;9.02;100.00;98906.59;4992474;28;20034;-54
2021/12/28 11:13:57;;;;;;;17.92;7.50;;;;;;;9.03;100.00;98904.69;4991773;28;20030;-54
2021/12/28 11:16:26;;;;;;;19.03;8.60;;;;;;;9.06;100.00;98909.50;4992162;28;20042;-54
2021/12/28 11:18:53;;;;;;;17.55;8.93;;;;;;;9.02;100.00;98892.03;4991867;28;20105;-54